Aérodrome :
LOGIN :

S'inscrire | Disclaimer

   EN    FR    IT 

 










Légende :    VFR   VFR Marginal   IFR   IFR Intensif   IFR Très Intensif
Visi : 
Plafond : 
>= 8 km
>= 3000ft
5 à 8 km
1000 à 3000 ft
1500m à 5 km
500 à 1000 ft
800 à 1500m
200 à 500 ft
< 800m
< 200 ft
Symboles :   Orages  Brouillard  Fortes neiges  Fortes précipitations  Vent > 20 kt
SIGMETs :   Divers  Orages  Givrage  Turbulence  Onde Orograph.  Cendres Volcan.






- Altitude de l'aérodrome : 538 ft
- Code IATA : TNF


LFPN - Toussus Le Noble

DERNIER METAR :
  • 041400Z AUTO 20005KT 140V250 CAVOK 18/12 Q1020 NOSIG

METARs EXPIRÉS :
  • 041330Z AUTO 20007KT 160V240 CAVOK 18/11 Q1021 NOSIG
  • 041300Z AUTO 19004KT 120V230 9999 FEW024 18/11 Q1021 NOSIG
  • 041230Z AUTO 20005KT 130V260 CAVOK 18/11 Q1021 NOSIG
  • 041200Z AUTO 23006KT 180V270 CAVOK 19/11 Q1021 NOSIG
  • 041130Z AUTO 20007KT 160V230 CAVOK 18/12 Q1021 NOSIG

TAF TAF LFPN
Valide du 04 à 12h jusqu'au 04 à 21h UTC


041100Z 0412/0421 20007KT 9999 SCT025
ATIS : +33 1 39 56 54 70



MET'MAP, la Météo Aéronautique d'un coup d'oeil ! - Copyright ORBIFLY Décembre 2007 - Disclaimer

ORBIFLY MET'MAP TEAM :

Programmation & Développement : Alexandra Zaïnal
Sur une idée originale de : Baudouin d'Aumeries
Soutien technique & logistique : Manuel Goepfert
Assistance : Marc-Olivier Méhu




SOURCES & CREDITS :

   NOAA